Terminal Aerodrome Forecast
Issued by NWS

Home | Current Version | Previous Version | Text Only | Print | Product List | Glossary On
Versions: 1 2 3 4 5 6 7 8 9 10 11 12 13 14 15 16 17
000
FTAK31 PAJN 240500
TAFAYA
TAF
PAYA 240529Z 2406/2506 07006KT 6SM -RA BR BKN006 OVC016
      TEMPO 2406/2410 2SM -RA BR BKN004 OVC010
     FM241200 00000KT 3SM BR VCSH SCT004 BKN008 OVC012
     FM241800 10003KT P6SM SCT008 BKN016 OVC025
     FM242100 13006KT P6SM SCT016 SCT025 BKN035
      AMD NOT SKED=

USA.gov is the U.S. government's official web portal to all federal, state and local government web resources and services.